Time;durP1;ratioP1;P1;durP2;ratioP2;P2;SDS_P1;SDS_P2;PMS_P1;PMS_P2;Temp;Humidity;BMP_temperature;BMP_pressure;BME280_temperature;BME280_humidity;BME280_pressure;Samples;Min_cycle;Max_cycle;Signal;HPM_P1;HPM_P2
2021/11/02 00:02:08;;;;;;;;;4.00;4.00;;;;;21.43;43.54;99530.97;5015821;28;45349;-56
2021/11/02 00:04:34;;;;;;;;;3.25;3.25;;;;;21.41;43.75;99525.81;5016091;28;45333;-60
2021/11/02 00:06:59;;;;;;;;;4.00;1.00;;;;;21.42;43.60;99537.22;5016416;28;45374;-52
2021/11/02 00:09:27;;;;;;;;;5.00;3.75;;;;;21.41;43.60;99525.00;5016691;28;45620;-57
2021/11/02 00:11:54;;;;;;;;;5.00;3.25;;;;;21.39;43.75;99525.09;4998593;28;45332;-56
2021/11/02 00:14:21;;;;;;;;;2.75;2.00;;;;;21.40;43.87;99525.94;5015789;28;45855;-63
2021/11/02 00:16:53;;;;;;;;;4.00;3.00;;;;;21.38;43.49;99520.81;5015819;28;45557;-63
2021/11/02 00:19:18;;;;;;;;;4.75;4.25;;;;;21.35;43.88;99513.13;5015846;28;45414;-59
2021/11/02 00:21:46;;;;;;;;;2.50;2.50;;;;;21.38;43.69;99519.97;5015742;28;47171;-59
2021/11/02 00:24:26;;;;;;;;;3.25;3.25;;;;;21.38;43.70;99517.31;5015566;28;45389;-54
2021/11/02 00:26:51;;;;;;;;;3.00;2.25;;;;;21.37;43.60;99516.50;5015734;28;45472;-63
2021/11/02 00:29:17;;;;;;;;;2.75;2.75;;;;;21.36;43.56;99511.31;5015811;28;45472;-63
2021/11/02 00:31:42;;;;;;;;;3.00;3.00;;;;;21.35;43.84;99512.28;5015737;28;45444;-63
2021/11/02 00:34:07;;;;;;;;;5.00;3.00;;;;;21.34;43.82;99506.19;5015641;28;45411;-61
2021/11/02 00:36:33;;;;;;;;;3.25;3.25;;;;;21.35;43.80;99510.50;5015866;28;45438;-62
2021/11/02 00:38:58;;;;;;;;;3.00;3.00;;;;;21.33;43.63;99501.06;5015957;28;45615;-64
2021/11/02 00:41:23;;;;;;;;;3.50;3.50;;;;;21.34;43.44;99507.97;5015612;28;48123;-62
2021/11/02 00:43:51;;;;;;;;;3.75;2.75;;;;;21.33;43.59;99498.41;5015451;28;45417;-58
2021/11/02 00:46:23;;;;;;;;;4.00;2.00;;;;;21.31;43.72;99502.00;5015176;28;45433;-59
2021/11/02 00:48:49;;;;;;;;;1.25;1.25;;;;;21.31;43.66;99494.09;5015827;28;45460;-58
2021/11/02 00:51:14;;;;;;;;;2.00;2.00;;;;;21.31;43.92;99491.47;5015547;28;45444;-61
2021/11/02 00:53:39;;;;;;;;;1.25;1.25;;;;;21.31;43.48;99488.84;5015309;28;45433;-60
2021/11/02 00:56:04;;;;;;;;;2.00;2.00;;;;;21.29;43.78;99477.56;5015433;28;45399;-59
2021/11/02 00:58:30;;;;;;;;;2.00;2.00;;;;;21.30;43.37;99476.63;5015754;28;45507;-63
2021/11/02 01:00:55;;;;;;;;;2.25;2.25;;;;;21.29;43.92;99474.09;4997456;28;47994;-59
2021/11/02 01:03:21;;;;;;;;;2.50;2.00;;;;;21.29;43.61;99474.09;5015171;28;45325;-59
2021/11/02 01:05:46;;;;;;;;;3.00;3.00;;;;;21.28;43.69;99464.50;5015381;28;45368;-62
2021/11/02 01:08:11;;;;;;;;;1.00;1.00;;;;;21.26;44.06;99469.09;5016527;28;45411;-57
2021/11/02 01:10:37;;;;;;;;;2.00;2.00;;;;;21.28;43.74;99480.31;5018521;28;46859;-63
2021/11/02 01:13:03;;;;;;;;;2.50;2.50;;;;;21.27;43.75;99476.03;5019223;28;45275;-60
2021/11/02 01:15:30;;;;;;;;;1.00;1.00;;;;;21.27;43.55;99476.84;5019274;28;45341;-64
2021/11/02 01:17:56;;;;;;;;;1.50;1.50;;;;;21.26;43.57;99475.19;5019060;28;45537;-64
2021/11/02 01:20:22;;;;;;;;;3.00;2.00;;;;;21.26;43.59;99475.19;5018694;28;46050;-48
2021/11/02 01:22:47;;;;;;;;;3.00;2.00;;;;;21.25;43.86;99478.75;5018723;28;45542;-63
2021/11/02 01:25:15;;;;;;;;;2.00;2.00;;;;;21.25;43.32;99470.03;5018488;28;45388;-63
2021/11/02 01:27:41;;;;;;;;;2.00;2.00;;;;;21.21;43.45;99472.09;5018831;28;45428;-61
2021/11/02 01:30:08;;;;;;;;;2.00;2.00;;;;;21.23;43.51;99470.16;5018487;28;46172;-63
2021/11/02 01:32:33;;;;;;;;;1.00;1.00;;;;;21.23;43.84;99464.88;5018349;28;45389;-57
2021/11/02 01:35:00;;;;;;;;;1.25;1.25;;;;;21.23;44.02;99470.16;5018798;28;45384;-64
2021/11/02 01:37:26;;;;;;;;;1.50;1.50;;;;;21.22;43.93;99472.91;5018698;28;45451;-62
2021/11/02 01:39:52;;;;;;;;;5.00;2.75;;;;;21.23;43.64;99467.50;5018137;28;45718;-62
2021/11/02 01:42:21;;;;;;;;;2.00;2.00;;;;;21.21;43.41;99464.19;5018383;28;45274;-60
2021/11/02 01:44:47;;;;;;;;;2.00;2.00;;;;;21.22;44.06;99467.66;5018531;28;45394;-63
2021/11/02 01:47:12;;;;;;;;;1.00;1.00;;;;;21.21;43.82;99464.19;5018486;28;45601;-59
2021/11/02 01:49:37;;;;;;;;;1.00;1.00;;;;;21.19;43.66;99463.47;5018027;28;45341;-63
2021/11/02 01:52:03;;;;;;;;;1.00;1.00;;;;;21.20;43.49;99465.13;5018410;28;45366;-57
2021/11/02 01:54:29;;;;;;;;;1.00;1.00;;;;;21.15;43.64;99454.13;5018264;28;45364;-59
2021/11/02 01:56:55;;;;;;;;;1.00;1.00;;;;;21.19;43.89;99466.09;5018740;28;45238;-61
2021/11/02 01:59:27;;;;;;;;;0.00;0.00;;;;;21.18;44.00;99469.69;5016844;28;45342;-51
2021/11/02 02:02:24;;;;;;;;;1.50;1.50;;;;;21.19;43.71;99473.16;5017221;28;45218;-52
2021/11/02 02:05:08;;;;;;;;;2.00;2.00;;;;;21.17;43.69;99474.09;5017977;28;45742;-48
2021/11/02 02:07:52;;;;;;;;;1.00;1.00;;;;;21.17;44.04;99471.47;5018572;28;45599;-49
2021/11/02 02:10:35;;;;;;;;;1.00;1.00;;;;;21.16;43.42;99469.81;5017584;28;45358;-56
2021/11/02 02:13:11;;;;;;;;;1.00;1.00;;;;;21.16;43.64;99474.25;5018230;28;45337;-46
2021/11/02 02:16:05;;;;;;;;;1.25;1.25;;;;;21.16;43.83;99468.97;4999822;28;45369;-59
2021/11/02 02:18:41;;;;;;;;;1.00;1.00;;;;;21.12;43.97;99467.53;5000209;28;45578;-53
2021/11/02 02:21:16;;;;;;;;;1.00;1.00;;;;;21.14;43.49;99477.00;5017151;28;45695;-56
2021/11/02 02:23:50;;;;;;;;;1.00;1.00;;;;;21.14;43.78;99476.16;5017440;28;45328;-63
2021/11/02 02:26:57;;;;;;;;;1.75;1.00;;;;;21.14;43.66;99476.16;5017758;28;45476;-49
2021/11/02 02:29:25;;;;;;;;;2.25;0.75;;;;;21.12;43.84;99470.16;5017740;28;45518;-58
2021/11/02 02:31:53;;;;;;;;;2.75;1.25;;;;;21.11;43.88;99466.69;5017554;28;46478;-63
2021/11/02 02:34:20;;;;;;;;;2.00;1.00;;;;;21.11;43.44;99471.97;4999516;28;45739;-59
2021/11/02 02:36:51;;;;;;;;;0.50;0.50;;;;;21.12;43.58;99470.16;5017718;28;45544;-56
2021/11/02 02:39:18;;;;;;;;;1.00;1.00;;;;;21.12;44.00;99472.78;5017431;28;45435;-64
2021/11/02 02:41:46;;;;;;;;;0.25;0.25;;;;;21.10;43.86;99465.03;5017369;28;45420;-64
2021/11/02 02:44:12;;;;;;;;;1.00;1.00;;;;;21.11;44.19;99468.50;5017368;28;45487;-64
2021/11/02 02:46:40;;;;;;;;;1.00;1.00;;;;;21.09;43.55;99470.44;5017369;28;45485;-48
2021/11/02 02:49:10;;;;;;;;;0.25;0.00;;;;;21.10;43.67;99466.84;5017873;28;45319;-64
2021/11/02 02:51:39;;;;;;;;;1.00;1.00;;;;;21.10;44.11;99462.38;5017411;28;46435;-59
2021/11/02 02:54:05;;;;;;;;;0.00;0.00;;;;;21.10;43.64;99465.03;5017549;28;45441;-64
2021/11/02 02:56:33;;;;;;;;;1.00;1.00;;;;;21.09;43.59;99458.06;5017403;28;45474;-53
2021/11/02 02:59:02;;;;;;;;;0.00;0.00;;;;;21.09;44.14;99457.25;5017286;28;45459;-63
2021/11/02 03:01:28;;;;;;;;;1.00;1.00;;;;;21.08;43.76;99455.56;5017114;28;45639;-64
2021/11/02 03:04:05;;;;;;;;;2.00;1.00;;;;;21.08;43.76;99447.69;5016932;28;45709;-65
2021/11/02 03:06:33;;;;;;;;;0.00;0.00;;;;;21.09;43.61;99457.25;5032341;28;45475;-64
2021/11/02 03:09:00;;;;;;;;;1.00;1.00;;;;;21.07;43.82;99446.00;5017494;28;45654;-61
2021/11/02 03:11:28;;;;;;;;;1.00;1.00;;;;;21.07;43.57;99446.00;5016939;28;46143;-64
2021/11/02 03:13:56;;;;;;;;;1.00;1.00;;;;;21.07;43.54;99443.38;5016775;28;45234;-61
2021/11/02 03:17:11;;;;;;;;;0.00;0.00;;;;;21.06;43.78;99441.69;5017176;28;45377;-58
2021/11/02 03:54:58;;;;;;;;;0.00;0.00;;;;;21.02;43.76;99451.63;5016761;28;46371;-65
2021/11/02 04:30:20;;;;;;;;;0.00;0.00;;;;;20.96;44.12;99452.09;5015768;28;45410;-64
2021/11/02 05:08:49;;;;;;;;;0.00;0.00;;;;;20.93;44.03;99465.53;5019191;28;45449;-63
2021/11/02 05:47:50;;;;;;;;;0.00;0.00;;;;;20.88;43.94;99476.44;5018431;28;45338;-63
2021/11/02 06:06:24;;;;;;;;;0.00;0.00;;;;;20.84;43.74;99469.72;5017835;28;45465;-61
2021/11/02 06:09:10;;;;;;;;;0.00;0.00;;;;;20.85;44.02;99477.50;5001984;28;45658;-59
2021/11/02 06:27:41;;;;;;;;;0.00;0.00;;;;;20.85;44.26;99488.03;5017840;28;45274;-64
2021/11/02 06:29:03;;;;;;;;;0.00;0.00;;;;;20.84;44.20;99496.06;5017632;28;45966;-60
2021/11/02 06:31:36;;;;;;;;;0.00;0.00;;;;;20.82;43.87;99500.59;5017683;28;45769;-63
2021/11/02 07:20:08;;;;;;;;;1.50;1.50;;;;;20.87;41.94;99535.31;5017100;28;45384;-60
2021/11/02 07:23:39;;;;;;;;;1.50;1.00;;;;;20.94;42.35;99543.59;5016563;28;45521;-61
2021/11/02 07:28:56;;;;;;;;;2.00;0.00;;;;;21.03;42.12;99557.81;5016781;28;45334;-61
2021/11/02 08:47:18;;;;;;;;;2.75;0.75;;;;;21.35;41.92;99617.72;5015551;28;45373;-58
2021/11/02 08:49:46;;;;;;;;;0.25;0.25;;;;;21.34;42.14;99619.53;5015865;28;45398;-53
2021/11/02 08:52:16;;;;;;;;;0.25;0.00;;;;;21.34;42.08;99627.44;5015505;28;46959;-58
2021/11/02 08:54:43;;;;;;;;;1.00;1.00;;;;;21.34;42.19;99619.53;5015687;28;45337;-57
2021/11/02 08:57:09;;;;;;;;;1.00;0.00;;;;;21.34;42.49;99622.16;5015626;28;45469;-56
2021/11/02 08:59:35;;;;;;;;;0.25;0.25;;;;;21.36;42.48;99627.28;5015638;28;45491;-56
2021/11/02 09:02:06;;;;;;;;;0.00;0.00;;;;;21.35;42.50;99631.75;5015435;28;46786;-57
2021/11/02 09:04:32;;;;;;;;;2.50;1.00;;;;;21.35;42.57;99631.75;5015233;28;45425;-57
2021/11/02 09:07:05;;;;;;;;;1.00;1.00;;;;;21.34;42.28;99639.75;5015507;28;45404;-56
2021/11/02 09:09:37;;;;;;;;;0.50;0.50;;;;;21.33;42.46;99631.00;5015799;28;45286;-55
2021/11/02 09:12:03;;;;;;;;;1.25;1.25;;;;;21.31;42.76;99631.16;5015289;28;47505;-55
2021/11/02 09:14:34;;;;;;;;;0.50;0.50;;;;;21.33;42.85;99630.19;5015425;28;45515;-56
2021/11/02 09:17:01;;;;;;;;;0.00;0.00;;;;;21.32;42.48;99629.34;5015679;28;45468;-55
2021/11/02 09:19:29;;;;;;;;;5.00;1.00;;;;;21.31;42.41;99625.88;5015438;28;45500;-57
2021/11/02 09:21:55;;;;;;;;;0.00;0.00;;;;;21.32;42.73;99629.34;4997959;28;47035;-56
2021/11/02 09:24:21;;;;;;;;;1.25;0.75;;;;;21.33;42.61;99624.91;5015354;28;45325;-56
2021/11/02 09:26:47;;;;;;;;;0.75;0.00;;;;;21.32;42.75;99626.69;4997685;28;45406;-57
2021/11/02 09:29:13;;;;;;;;;1.00;1.00;;;;;21.31;43.01;99636.41;5015212;28;45415;-54
2021/11/02 09:31:40;;;;;;;;;0.00;0.00;;;;;21.32;42.80;99637.25;5018258;28;46728;-56
2021/11/02 09:34:06;;;;;;;;;1.00;1.00;;;;;21.31;42.97;99628.50;5018766;28;45304;-56
2021/11/02 09:36:42;;;;;;;;;2.00;1.00;;;;;21.33;43.23;99638.09;5018658;28;45313;-57
2021/11/02 09:39:10;;;;;;;;;1.00;1.00;;;;;21.31;43.20;99630.28;5018720;28;45349;-59
2021/11/02 09:42:22;;;;;;;;;0.00;0.00;;;;;21.31;42.74;99631.16;5018386;28;45464;-56
2021/11/02 09:45:23;;;;;;;;;0.50;0.00;;;;;21.31;43.07;99627.66;5018172;28;46032;-53
2021/11/02 09:48:02;;;;;;;;;1.25;0.00;;;;;21.30;42.95;99623.34;4985514;28;45685;-56
2021/11/02 09:51:12;;;;;;;;;0.00;0.00;;;;;21.31;42.82;99631.16;5018887;28;45382;-49
2021/11/02 09:54:06;;;;;;;;;0.00;0.00;;;;;21.30;43.01;99629.47;4973940;28;45590;-54
2021/11/02 09:57:05;;;;;;;;;0.00;0.00;;;;;21.31;43.09;99638.19;5018256;28;45881;-58
2021/11/02 10:00:09;;;;;;;;;0.00;0.00;;;;;21.28;42.94;99634.00;5018421;28;45255;-56
2021/11/02 10:02:55;;;;;;;;;1.00;1.00;;;;;21.26;42.79;99630.66;5018360;28;45460;-57
2021/11/02 10:05:35;;;;;;;;;1.00;0.00;;;;;21.28;42.89;99634.00;5017875;28;46181;-57
2021/11/02 10:08:17;;;;;;;;;1.00;1.00;;;;;21.27;42.62;99637.59;5017954;28;45337;-54
2021/11/02 10:11:09;;;;;;;;;0.00;0.00;;;;;21.27;42.83;99637.59;5000494;28;45491;-57
2021/11/02 10:13:40;;;;;;;;;0.75;0.75;;;;;21.28;42.65;99641.91;5018475;28;45491;-56
2021/11/02 10:16:15;;;;;;;;;2.25;1.00;;;;;21.27;42.76;99645.50;5017778;28;45575;-52
2021/11/02 10:19:29;;;;;;;;;0.00;0.00;;;;;21.26;42.90;99649.09;5017420;28;45380;-45
2021/11/02 10:21:57;;;;;;;;;1.00;1.00;;;;;21.26;42.79;99646.47;5017320;28;45482;-48
2021/11/02 10:25:01;;;;;;;;;2.00;1.00;;;;;21.27;42.68;99656.03;5018214;28;45579;-45
2021/11/02 10:27:48;;;;;;;;;0.75;0.75;;;;;21.27;42.70;99660.50;4994189;28;45528;-50
2021/11/02 10:30:40;;;;;;;;;0.00;0.00;;;;;21.26;43.00;99664.91;5017408;28;45234;-47
2021/11/02 10:33:23;;;;;;;;;0.25;0.25;;;;;21.24;43.04;99656.28;5018054;28;45467;-48
2021/11/02 10:36:23;;;;;;;;;1.00;0.00;;;;;21.25;42.93;99665.88;5018041;28;45321;-58
2021/11/02 10:39:16;;;;;;;;;0.00;0.00;;;;;21.24;42.60;99666.00;5017350;28;46118;-57
2021/11/02 10:42:08;;;;;;;;;0.00;0.00;;;;;21.24;42.98;99671.25;5016707;28;45333;-57
2021/11/02 10:44:41;;;;;;;;;1.00;0.50;;;;;21.23;42.74;99670.41;4999572;28;45455;-57
2021/11/02 10:47:09;;;;;;;;;0.25;0.25;;;;;21.23;43.05;99666.94;5017765;28;45318;-58
2021/11/02 10:49:54;;;;;;;;;1.50;1.00;;;;;21.22;42.95;99667.91;5017274;28;45587;-57
2021/11/02 10:52:26;;;;;;;;;1.00;1.00;;;;;21.21;43.06;99667.06;4999310;28;45833;-57
2021/11/02 10:55:23;;;;;;;;;0.00;0.00;;;;;21.21;43.23;99656.53;5017251;28;45356;-54
2021/11/02 10:58:31;;;;;;;;;0.00;0.00;;;;;21.20;42.93;99660.13;5017562;28;45593;-58
2021/11/02 11:00:56;;;;;;;;;0.00;0.00;;;;;21.20;43.16;99662.75;4986906;28;46702;-58
2021/11/02 11:03:28;;;;;;;;;0.00;0.00;;;;;21.20;42.83;99660.13;5016949;28;45528;-56
2021/11/02 11:05:59;;;;;;;;;0.00;0.00;;;;;21.20;43.03;99660.13;5017129;28;45646;-57
2021/11/02 11:08:31;;;;;;;;;1.00;1.00;;;;;21.20;42.81;99654.84;5017439;28;45404;-57
2021/11/02 11:10:59;;;;;;;;;1.00;0.00;;;;;21.19;43.21;99653.16;5016992;28;46380;-58
2021/11/02 11:13:29;;;;;;;;;0.25;0.25;;;;;21.18;43.16;99648.84;5017058;28;45366;-58
2021/11/02 11:16:05;;;;;;;;;0.00;0.00;;;;;21.19;43.03;99647.91;5017180;28;45425;-58
2021/11/02 11:18:53;;;;;;;;;1.00;0.00;;;;;21.20;42.60;99652.22;5017269;28;45457;-56
2021/11/02 11:21:24;;;;;;;;;0.00;0.00;;;;;21.19;42.69;99653.16;5016367;28;46217;-57
2021/11/02 11:23:55;;;;;;;;;0.25;0.25;;;;;21.18;42.81;99646.22;5016966;28;45789;-57
2021/11/02 11:26:24;;;;;;;;;0.75;0.75;;;;;21.19;42.63;99642.63;4998968;28;45319;-58
2021/11/02 11:28:53;;;;;;;;;0.00;0.00;;;;;21.19;42.82;99642.63;5017106;28;45365;-56
2021/11/02 11:31:19;;;;;;;;;1.25;1.25;;;;;21.18;42.64;99638.31;5016593;28;46561;-57
2021/11/02 11:33:45;;;;;;;;;1.50;0.75;;;;;21.18;42.69;99635.69;5016433;28;45848;-57
2021/11/02 11:36:15;;;;;;;;;0.25;0.25;;;;;21.15;43.15;99628.88;5016825;28;45756;-58
2021/11/02 11:38:45;;;;;;;;;0.00;0.00;;;;;21.17;42.70;99634.00;5016760;28;45454;-57
2021/11/02 11:41:13;;;;;;;;;0.00;0.00;;;;;21.16;43.05;99638.44;5016517;28;45319;-58
2021/11/02 11:43:41;;;;;;;;;2.00;0.00;;;;;21.15;42.98;99635.91;5016431;28;45722;-58
2021/11/02 11:46:06;;;;;;;;;0.25;0.25;;;;;21.14;43.03;99635.09;5016300;28;45333;-58
2021/11/02 11:48:38;;;;;;;;;0.50;0.50;;;;;21.14;42.75;99635.09;5017038;28;45580;-57
2021/11/02 11:51:04;;;;;;;;;1.25;0.50;;;;;21.14;42.78;99631.59;5016195;28;46454;-57
2021/11/02 11:53:31;;;;;;;;;2.50;1.00;;;;;21.12;42.80;99626.47;5015847;28;45472;-58
2021/11/02 11:56:17;;;;;;;;;0.00;0.00;;;;;21.13;42.84;99629.91;5016469;28;45453;-56
2021/11/02 11:58:50;;;;;;;;;1.50;0.00;;;;;21.13;42.96;99622.00;5016397;28;45428;-58
2021/11/02 12:01:35;;;;;;;;;0.00;0.00;;;;;21.12;43.16;99617.69;5016268;28;46353;-51
2021/11/02 12:04:09;;;;;;;;;0.00;0.00;;;;;21.12;43.21;99622.97;5016783;28;45662;-57
2021/11/02 12:06:50;;;;;;;;;1.00;1.00;;;;;21.10;43.25;99614.38;5016459;28;45345;-56
2021/11/02 12:09:19;;;;;;;;;0.00;0.00;;;;;21.08;42.59;99614.47;5016602;28;45500;-58
2021/11/02 12:11:46;;;;;;;;;1.25;0.00;;;;;21.09;42.71;99617.97;5016113;28;46572;-58
2021/11/02 12:14:24;;;;;;;;;0.00;0.00;;;;;21.06;43.06;99611.09;5016110;28;45475;-58
2021/11/02 12:16:51;;;;;;;;;1.00;1.00;;;;;21.09;43.01;99607.41;5016160;28;45401;-57
2021/11/02 12:19:36;;;;;;;;;1.00;1.00;;;;;21.08;42.69;99609.19;5016082;28;45474;-58
2021/11/02 12:22:05;;;;;;;;;0.00;0.00;;;;;21.09;43.41;99612.69;5016007;28;45848;-57
2021/11/02 12:24:39;;;;;;;;;0.50;0.50;;;;;21.08;42.85;99605.75;5016222;28;45782;-56
2021/11/02 12:27:14;;;;;;;;;0.00;0.00;;;;;21.07;42.87;99601.41;5016359;28;45475;-45
2021/11/02 12:29:42;;;;;;;;;2.00;1.00;;;;;21.07;43.10;99598.78;5016249;28;45278;-57
2021/11/02 12:32:12;;;;;;;;;0.00;0.00;;;;;21.09;42.99;99599.50;4997983;28;46657;-54
2021/11/02 12:34:51;;;;;;;;;0.00;0.00;;;;;21.08;42.78;99598.66;5015943;28;45801;-54
2021/11/02 12:37:18;;;;;;;;;0.00;0.00;;;;;21.08;42.69;99600.47;5015747;28;45471;-53
2021/11/02 12:39:45;;;;;;;;;0.00;0.00;;;;;21.08;42.77;99597.84;5015953;28;45374;-56
2021/11/02 12:42:11;;;;;;;;;1.00;0.00;;;;;21.09;42.52;99600.34;5015699;28;45935;-55
2021/11/02 12:44:38;;;;;;;;;0.00;0.00;;;;;21.08;43.13;99592.56;5015625;28;45314;-51
2021/11/02 12:47:12;;;;;;;;;2.00;1.00;;;;;21.09;43.01;99594.25;5016203;28;45448;-57
2021/11/02 12:49:58;;;;;;;;;0.00;0.00;;;;;21.08;43.02;99584.66;5016376;28;45326;-52
2021/11/02 12:52:27;;;;;;;;;0.00;0.00;;;;;21.10;42.82;99590.66;5015698;28;46586;-57
2021/11/02 12:55:08;;;;;;;;;0.50;0.00;;;;;21.08;42.92;99582.03;5015538;28;45373;-56
2021/11/02 12:57:37;;;;;;;;;0.00;0.00;;;;;21.10;42.85;99585.38;5015874;28;45511;-56
2021/11/02 13:00:10;;;;;;;;;0.00;0.00;;;;;21.08;42.65;99584.66;5016119;28;45362;-52
2021/11/02 13:02:39;;;;;;;;;0.00;0.00;;;;;21.09;42.63;99583.72;5015688;28;45423;-57
2021/11/02 13:05:22;;;;;;;;;0.00;0.00;;;;;21.08;42.63;99582.03;5018334;28;45215;-56
2021/11/02 13:08:01;;;;;;;;;0.00;0.00;;;;;21.08;42.60;99580.22;5019153;28;45365;-57
2021/11/02 13:10:32;;;;;;;;;0.00;0.00;;;;;21.07;42.55;99569.81;5019554;28;45437;-58
2021/11/02 13:13:25;;;;;;;;;0.00;0.00;;;;;21.07;42.59;99567.19;5018666;28;46297;-57
2021/11/02 13:15:51;;;;;;;;;0.00;0.00;;;;;21.07;42.59;99569.81;5015644;28;45705;-59
2021/11/02 13:18:37;;;;;;;;;0.00;0.00;;;;;21.05;42.49;99564.66;5018957;28;45386;-54
2021/11/02 13:21:29;;;;;;;;;0.00;0.00;;;;;21.05;42.96;99566.44;5019366;28;45625;-53
2021/11/02 13:24:02;;;;;;;;;0.00;0.00;;;;;21.06;43.00;99568.94;5000731;28;46498;-55
2021/11/02 13:26:28;;;;;;;;;0.00;0.00;;;;;21.04;42.87;99576.16;5018792;28;45615;-50
2021/11/02 13:29:11;;;;;;;;;0.00;0.00;;;;;21.03;42.84;99571.84;5018899;28;45409;-50
2021/11/02 13:31:37;;;;;;;;;0.00;0.00;;;;;21.04;43.03;99570.91;5019166;28;45199;-54
2021/11/02 13:34:06;;;;;;;;;1.00;0.00;;;;;21.04;42.47;99563.00;5018541;28;46224;-58
2021/11/02 13:36:31;;;;;;;;;1.00;1.00;;;;;21.04;42.61;99554.22;5018475;28;45417;-58
2021/11/02 13:39:02;;;;;;;;;0.25;0.25;;;;;21.05;42.88;99558.53;5018570;28;45314;-52
2021/11/02 13:41:33;;;;;;;;;0.00;0.00;;;;;21.05;42.68;99550.66;5018874;28;45246;-54
2021/11/02 13:44:02;;;;;;;;;0.25;0.00;;;;;21.05;42.53;99551.50;5018697;28;45528;-52
2021/11/02 13:46:59;;;;;;;;;0.00;0.00;;;;;21.00;42.65;99537.84;5018145;28;45388;-50
2021/11/02 13:49:24;;;;;;;;;0.00;0.00;;;;;21.04;42.62;99548.97;5015115;28;45619;-47
2021/11/02 13:51:51;;;;;;;;;0.75;0.75;;;;;21.02;42.88;99535.94;5018563;28;45335;-57
2021/11/02 13:54:17;;;;;;;;;0.00;0.00;;;;;21.03;42.59;99542.03;5018169;28;46468;-50
2021/11/02 13:56:45;;;;;;;;;2.75;0.25;;;;;21.01;43.36;99545.59;5018168;28;45429;-57
2021/11/02 13:59:12;;;;;;;;;0.00;0.00;;;;;21.03;42.62;99547.28;5018269;28;45385;-49
2021/11/02 14:01:49;;;;;;;;;2.00;0.00;;;;;21.03;42.38;99539.38;5018275;28;45551;-56
2021/11/02 14:04:29;;;;;;;;;1.50;0.00;;;;;21.00;42.43;99546.56;5017861;28;46339;-51
2021/11/02 14:07:16;;;;;;;;;0.00;0.00;;;;;21.00;42.36;99554.47;5018183;28;45730;-53
2021/11/02 14:09:50;;;;;;;;;3.25;0.00;;;;;20.99;42.93;99547.56;5017964;28;45369;-51
2021/11/02 14:12:30;;;;;;;;;0.00;0.00;;;;;20.97;42.86;99546.81;5018469;28;45322;-47
2021/11/02 14:15:10;;;;;;;;;0.25;0.25;;;;;20.99;42.73;99541.44;5017953;28;45524;-50
2021/11/02 14:17:39;;;;;;;;;0.00;0.00;;;;;20.97;43.09;99538.91;5017713;28;45655;-52
2021/11/02 14:20:05;;;;;;;;;0.50;0.25;;;;;20.97;42.91;99538.06;5018205;28;45491;-46
2021/11/02 14:22:47;;;;;;;;;0.00;0.00;;;;;20.97;42.59;99541.56;5017908;28;45627;-50
2021/11/02 14:25:21;;;;;;;;;0.00;0.00;;;;;20.97;42.84;99538.91;5017535;28;47327;-47
2021/11/02 14:27:50;;;;;;;;;0.00;0.00;;;;;20.97;42.61;99543.34;5017899;28;45306;-44
2021/11/02 14:30:22;;;;;;;;;0.00;0.00;;;;;20.97;42.51;99540.69;5018104;28;45773;-47
2021/11/02 14:32:50;;;;;;;;;0.00;0.00;;;;;20.97;42.48;99544.19;5017631;28;45635;-46
2021/11/02 14:35:38;;;;;;;;;0.00;0.00;;;;;20.96;43.01;99544.28;5017584;28;47241;-52
2021/11/02 14:38:08;;;;;;;;;0.00;0.00;;;;;20.96;42.45;99554.81;4999743;28;45673;-55
2021/11/02 14:40:36;;;;;;;;;0.00;0.00;;;;;20.95;42.63;99548.72;5017514;28;45312;-54
2021/11/02 14:43:14;;;;;;;;;0.00;0.00;;;;;20.96;42.69;99544.28;5017665;28;45354;-54
2021/11/02 14:45:41;;;;;;;;;0.00;0.00;;;;;20.96;42.72;99546.91;5017680;28;45535;-57
2021/11/02 14:48:24;;;;;;;;;0.00;0.00;;;;;20.96;42.70;99546.91;5017732;28;45695;-55
2021/11/02 14:50:53;;;;;;;;;1.00;0.00;;;;;20.94;42.57;99544.41;5017214;28;45301;-53
2021/11/02 14:53:28;;;;;;;;;2.00;0.00;;;;;20.93;42.89;99542.75;5017820;28;45520;-52
2021/11/02 14:55:54;;;;;;;;;0.25;0.25;;;;;20.94;42.56;99551.50;5016903;28;46202;-43
2021/11/02 14:58:38;;;;;;;;;0.00;0.00;;;;;20.93;42.89;99547.19;4999386;28;45869;-54
2021/11/02 15:01:24;;;;;;;;;0.00;0.00;;;;;20.92;42.33;99548.97;5017332;28;45483;-44
2021/11/02 15:03:59;;;;;;;;;1.75;0.00;;;;;20.91;42.59;99539.38;5016531;28;45643;-51
2021/11/02 15:06:32;;;;;;;;;0.00;0.00;;;;;20.91;42.48;99538.56;5017132;28;46097;-50
2021/11/02 15:08:59;;;;;;;;;1.25;0.00;;;;;20.91;42.91;99538.56;5017283;28;45239;-51
2021/11/02 15:11:24;;;;;;;;;0.00;0.00;;;;;20.90;42.92;99542.97;4999233;28;45476;-56
2021/11/02 15:13:59;;;;;;;;;0.75;0.00;;;;;20.89;42.59;99538.66;5017441;28;45380;-54
2021/11/02 15:16:26;;;;;;;;;1.00;0.00;;;;;20.88;43.07;99534.38;5016802;28;46656;-56
2021/11/02 15:19:03;;;;;;;;;0.00;0.00;;;;;20.89;42.58;99535.19;5016752;28;45301;-56
2021/11/02 15:21:30;;;;;;;;;0.00;0.00;;;;;20.88;42.53;99536.16;5017098;28;45330;-57
2021/11/02 15:23:56;;;;;;;;;0.00;0.00;;;;;20.87;42.31;99535.31;5017104;28;45349;-52
2021/11/02 15:26:21;;;;;;;;;0.00;0.00;;;;;20.85;42.88;99524.88;5016745;28;46490;-56
2021/11/02 15:28:51;;;;;;;;;0.00;0.00;;;;;20.85;42.79;99530.16;5016670;28;45376;-58
2021/11/02 15:31:20;;;;;;;;;2.75;1.00;;;;;20.85;42.95;99530.16;5016844;28;45524;-56
2021/11/02 15:33:45;;;;;;;;;0.00;0.00;;;;;20.85;42.57;99524.88;5017156;28;45353;-55
2021/11/02 15:36:22;;;;;;;;;0.00;0.00;;;;;20.85;42.71;99526.69;5016937;28;45370;-55
2021/11/02 15:39:08;;;;;;;;;0.00;0.00;;;;;20.84;42.45;99522.38;5016678;28;45638;-58
2021/11/02 15:41:34;;;;;;;;;0.00;0.00;;;;;20.84;42.56;99522.38;5017056;28;45411;-59
2021/11/02 15:44:01;;;;;;;;;0.00;0.00;;;;;20.84;42.34;99525.84;5016862;28;45499;-58
2021/11/02 15:46:41;;;;;;;;;0.00;0.00;;;;;20.84;42.49;99522.38;5016371;28;46445;-58
2021/11/02 15:49:11;;;;;;;;;0.00;0.00;;;;;20.83;42.77;99523.34;5016357;28;45334;-57
2021/11/02 15:51:41;;;;;;;;;0.00;0.00;;;;;20.83;42.56;99518.06;5016640;28;45360;-56
2021/11/02 15:54:11;;;;;;;;;0.00;0.00;;;;;20.82;42.99;99514.63;5016500;28;45548;-57
2021/11/02 15:56:37;;;;;;;;;1.75;0.25;;;;;20.81;42.38;99512.09;4998610;28;46236;-55
2021/11/02 15:59:06;;;;;;;;;0.00;0.00;;;;;20.80;42.89;99513.91;5016294;28;45655;-56
2021/11/02 16:01:40;;;;;;;;;1.75;0.50;;;;;20.82;42.35;99511.13;5016319;28;45436;-50
2021/11/02 16:04:23;;;;;;;;;1.75;0.00;;;;;20.79;42.99;99509.59;5016596;28;45447;-47
2021/11/02 16:07:01;;;;;;;;;0.00;0.00;;;;;20.81;42.49;99514.72;5015792;28;46695;-54
2021/11/02 16:09:54;;;;;;;;;0.25;0.00;;;;;20.81;42.50;99512.09;5014459;28;45605;-49
2021/11/02 16:12:27;;;;;;;;;1.50;0.00;;;;;20.80;42.59;99510.41;5016361;28;45454;-47
2021/11/02 16:14:59;;;;;;;;;0.00;0.00;;;;;20.76;42.46;99494.00;5016524;28;45282;-56
2021/11/02 16:17:27;;;;;;;;;1.00;1.00;;;;;20.83;42.89;99504.91;5016154;28;45733;-56
2021/11/02 16:19:55;;;;;;;;;2.00;0.25;;;;;20.84;42.42;99502.16;5016079;28;45734;-63
2021/11/02 16:22:22;;;;;;;;;0.00;0.00;;;;;20.87;42.68;99501.09;5015785;28;45361;-57
2021/11/02 16:25:07;;;;;;;;;2.00;0.00;;;;;20.88;42.84;99500.13;5014000;28;45685;-57
2021/11/02 16:27:33;;;;;;;;;1.00;1.00;;;;;20.91;42.58;99497.25;5015817;28;45365;-60
2021/11/02 16:29:58;;;;;;;;;4.00;1.00;;;;;20.94;42.75;99502.28;5015642;28;45461;-58
2021/11/02 16:32:26;;;;;;;;;0.75;0.75;;;;;20.98;43.14;99502.88;5015970;28;45477;-57
2021/11/02 16:34:53;;;;;;;;;2.00;2.00;;;;;21.00;42.80;99503.59;5016230;28;45589;-60
2021/11/02 16:37:35;;;;;;;;;0.25;0.25;;;;;21.03;42.96;99505.13;5015796;28;46602;-56
2021/11/02 16:40:21;;;;;;;;;0.50;0.50;;;;;21.04;43.07;99498.91;5017875;28;45371;-57
2021/11/02 16:43:04;;;;;;;;;0.00;0.00;;;;;21.05;42.67;99497.97;5019738;28;45397;-57
2021/11/02 16:45:35;;;;;;;;;0.75;0.00;;;;;21.07;42.81;99490.78;5019666;28;45398;-51
2021/11/02 16:48:07;;;;;;;;;1.25;1.25;;;;;21.05;42.49;99483.00;5019158;28;46276;-51
2021/11/02 16:50:37;;;;;;;;;0.25;0.25;;;;;21.04;42.76;99480.47;5018963;28;45401;-54
2021/11/02 16:53:16;;;;;;;;;2.00;1.00;;;;;21.07;42.36;99486.34;4984993;28;45342;-57
2021/11/02 16:55:44;;;;;;;;;0.50;0.50;;;;;21.08;42.57;99484.56;5019709;28;45321;-48
2021/11/02 16:58:19;;;;;;;;;1.50;0.50;;;;;21.09;42.75;99480.97;5019029;28;47359;-53
2021/11/02 17:00:46;;;;;;;;;0.00;0.00;;;;;21.10;42.91;99488.75;5019270;28;45238;-53